Etusivu
METAR-TAF:

METAR-TAF

Lentoasemat :

Ford Airport

Iron Mountain / Kingsford, Michigan, Yhdysvallat

Leveyspiiri: 45-48-51N, Pituuspiiri: 088-06-32W, korkeus merenpinnasta: 360 m

Tämänhetkinen sää

Tämä raportti tehtiin 31 minuuttia sitten, kello 09.24 UTC
Tuuli 6 kn pohjoisen/luoteesta
Lämpötila -2°C
Kosteus 86%
Ilmanpaine 1007 hPa
Näkyvyys: 2.4 km
Hajonneita pilviä 1500 ft:n korkeudessa
Pilvistä 2300 ft:n korkeudessa
heikkoa lumisadetta, utua

METAR: KIMT 180924Z AUTO 34006KT 1 1/2SM -SN BR BKN015 OVC023 M02/M04 A2975 RMK AO2 P0001 T10221044 $

Aika: 04:55 (09:55 UTC)


TAF: puuttuu

Säähavainnot ja -ennusteet yli 4000 lentoasemalta (METAR- ja TAF-raportit).

Käytössä olevat sääasemat on merkitty karttaan keltaisilla ja punaisilla pisteillä.

Aseta hiiri pisteen päälle nähdäksesi sääaseman nimen.

Klikkaa sitten nähdäksesi säähavainnot ja -ennusteet.

Kartan vaihtaminen: klikkaa mustalla rastilla varustettuja vihreitä pisteitä, niin voit zoomata sisään; viivalla varustettua vihreää pistettä, niin voit zoomata ulos tai vihreitä nuolia, niin pääset viereisille kartoille.


METAR-TAF: